Time;durP1;ratioP1;P1;durP2;ratioP2;P2;SDS_P1;SDS_P2;PMS_P1;PMS_P2;Temp;Humidity;BMP_temperature;BMP_pressure;BME280_temperature;BME280_humidity;BME280_pressure;Samples;Min_cycle;Max_cycle;Signal;HPM_P1;HPM_P2
2022/12/29 00:00:00;;;;;;;1.98;1.70;;;10.60;99.90;;;;;;4986426;28;20047;-74
2022/12/29 00:02:26;;;;;;;1.85;1.60;;;10.60;99.90;;;;;;5003326;28;20027;-74
2022/12/29 00:04:52;;;;;;;2.05;1.55;;;10.70;99.90;;;;;;5004752;28;20026;-73
2022/12/29 00:07:18;;;;;;;1.48;1.27;;;10.70;99.90;;;;;;5006115;28;20033;-74
2022/12/29 00:09:45;;;;;;;1.65;1.55;;;10.70;99.90;;;;;;5008630;28;20030;-74
2022/12/29 00:12:10;;;;;;;1.73;1.38;;;10.70;99.90;;;;;;4994473;28;20496;-74
2022/12/29 00:17:21;;;;;;;1.80;1.70;;;10.80;99.90;;;;;;4989849;28;20046;-74
2022/12/29 00:36:27;;;;;;;0.93;0.90;;;10.90;99.90;;;;;;5007871;28;20022;-75
2022/12/29 00:44:29;;;;;;;0.68;0.68;;;11.00;99.90;;;;;;4989564;28;20062;-74
2022/12/29 00:46:55;;;;;;;0.68;0.68;;;11.10;99.90;;;;;;4988391;28;20022;-74
2022/12/29 00:49:31;;;;;;;1.55;0.55;;;11.10;99.90;;;;;;4988076;28;20093;-74
2022/12/29 00:52:23;;;;;;;0.70;0.70;;;11.10;99.90;;;;;;4968910;28;20043;-74
2022/12/29 00:54:49;;;;;;;0.85;0.68;;;11.00;99.90;;;;;;4966967;29;20050;-74
2022/12/29 00:57:14;;;;;;;0.40;0.40;;;11.10;99.90;;;;;;4968787;28;20023;-74
2022/12/29 00:59:42;;;;;;;1.50;0.85;;;11.10;99.90;;;;;;4973459;28;20054;-74
2022/12/29 01:02:09;;;;;;;1.15;1.15;;;11.10;99.90;;;;;;5006845;28;20473;-73
2022/12/29 01:04:35;;;;;;;0.63;0.63;;;11.10;99.90;;;;;;5007316;28;20018;-74
2022/12/29 01:07:01;;;;;;;0.80;0.80;;;11.10;99.90;;;;;;5008754;28;20069;-74
2022/12/29 01:12:12;;;;;;;0.50;0.50;;;11.20;99.90;;;;;;4989167;28;20077;-74
2022/12/29 01:14:38;;;;;;;1.27;0.90;;;11.20;99.90;;;;;;4971734;28;20038;-74
2022/12/29 01:17:04;;;;;;;1.63;0.60;;;11.20;99.90;;;;;;4989164;28;20046;-74
2022/12/29 01:19:32;;;;;;;6.63;0.70;;;11.20;99.90;;;;;;4988986;28;20085;-73
2022/12/29 01:21:57;;;;;;;0.82;0.60;;;11.20;99.90;;;;;;4988071;28;20031;-74
2022/12/29 01:24:25;;;;;;;1.95;1.20;;;11.20;99.90;;;;;;4987832;28;20034;-74
2022/12/29 01:26:51;;;;;;;0.20;0.20;;;11.20;99.90;;;;;;4987488;28;20027;-74
2022/12/29 01:29:18;;;;;;;0.63;0.50;;;11.30;99.90;;;;;;4971408;28;20033;-74
2022/12/29 01:31:47;;;;;;;2.80;0.47;;;11.30;99.90;;;;;;5007228;28;20034;-74
2022/12/29 01:34:13;;;;;;;0.68;0.68;;;11.40;99.90;;;;;;5006875;28;20034;-74
2022/12/29 01:36:38;;;;;;;2.15;0.88;;;11.40;99.90;;;;;;5008055;28;20029;-74
2022/12/29 01:39:05;;;;;;;1.58;0.88;;;11.40;99.90;;;;;;4990822;28;20376;-74
2022/12/29 01:41:31;;;;;;;2.10;0.85;;;11.40;99.90;;;;;;4991169;28;20086;-74
2022/12/29 01:44:01;;;;;;;4.03;1.15;;;11.50;99.90;;;;;;4970996;28;20031;-74
2022/12/29 01:46:36;;;;;;;;;;;11.50;99.90;;;;;;4987893;28;20066;-74
2022/12/29 01:49:19;;;;;;;3.70;0.50;;;11.60;99.90;;;;;;4971197;28;19914;-74
2022/12/29 01:51:56;;;;;;;0.35;0.35;;;11.60;99.90;;;;;;5005071;28;20054;-73
2022/12/29 01:54:32;;;;;;;1.60;0.70;;;11.50;99.90;;;;;;5006510;28;20130;-73
2022/12/29 01:57:02;;;;;;;3.60;0.88;;;11.60;99.90;;;;;;4990597;28;20031;-73
2022/12/29 01:59:32;;;;;;;4.82;0.98;;;11.50;99.90;;;;;;4986732;28;20046;-73
2022/12/29 02:01:59;;;;;;;2.35;0.93;;;11.50;99.90;;;;;;4986842;28;20512;-73
2022/12/29 02:04:27;;;;;;;0.85;0.85;;;11.50;99.90;;;;;;4986886;28;20015;-72
2022/12/29 02:06:57;;;;;;;2.88;1.63;;;11.50;99.90;;;;;;4999793;28;20395;-72
2022/12/29 02:09:24;;;;;;;2.10;0.70;;;11.50;99.90;;;;;;4987901;28;20066;-73
2022/12/29 02:11:51;;;;;;;0.98;0.93;;;11.50;99.90;;;;;;4986756;28;20050;-73
2022/12/29 02:14:17;;;;;;;3.22;0.57;;;11.50;99.90;;;;;;4986688;28;20058;-73
2022/12/29 02:17:15;;;;;;;1.88;0.80;;;11.50;99.90;;;;;;4998616;28;20042;-73
2022/12/29 02:19:47;;;;;;;2.42;1.10;;;11.50;99.90;;;;;;5006006;28;20030;-73
2022/12/29 02:22:34;;;;;;;1.10;0.90;;;11.50;99.90;;;;;;5007356;28;20023;-72
2022/12/29 02:25:09;;;;;;;1.25;0.75;;;11.40;99.90;;;;;;5007261;28;20026;-72
2022/12/29 02:27:40;;;;;;;1.80;0.47;;;11.30;99.90;;;;;;4986666;28;20098;-72
2022/12/29 02:30:51;;;;;;;1.08;0.95;;;11.30;99.90;;;;;;4986434;28;20097;-73
2022/12/29 02:33:30;;;;;;;1.23;0.95;;;11.20;99.90;;;;;;4949999;29;20046;-73
2022/12/29 02:36:33;;;;;;;6.40;1.02;;;11.00;99.90;;;;;;4971605;28;20031;-72
2022/12/29 02:39:09;;;;;;;1.30;1.17;;;11.00;99.90;;;;;;5000194;28;20125;-73
2022/12/29 02:41:51;;;;;;;0.95;0.95;;;11.00;99.90;;;;;;5005624;28;20102;-72
2022/12/29 02:44:46;;;;;;;1.13;1.10;;;11.00;99.90;;;;;;5005840;28;20102;-73
2022/12/29 02:47:20;;;;;;;1.30;0.63;;;10.90;99.90;;;;;;4989692;28;20033;-73
2022/12/29 02:49:56;;;;;;;2.05;1.08;;;10.90;99.90;;;;;;4986154;28;20037;-73
2022/12/29 02:52:38;;;;;;;0.50;0.50;;;10.90;99.90;;;;;;5001061;28;20050;-73
2022/12/29 02:55:06;;;;;;;1.75;0.50;;;10.90;99.90;;;;;;4986188;28;20038;-74
2022/12/29 02:57:35;;;;;;;1.85;1.25;;;10.80;99.90;;;;;;5003032;28;20034;-73
2022/12/29 03:00:02;;;;;;;0.38;0.38;;;10.60;99.90;;;;;;5005083;28;20101;-73
2022/12/29 03:02:37;;;;;;;0.57;0.50;;;10.50;99.90;;;;;;5005459;28;20038;-74
2022/12/29 03:05:27;;;;;;;3.13;0.60;;;10.30;99.90;;;;;;5005245;28;20057;-74
2022/12/29 03:08:06;;;;;;;2.13;0.80;;;10.20;99.90;;;;;;4967974;28;20031;-74
2022/12/29 03:10:44;;;;;;;1.40;0.50;;;10.10;99.90;;;;;;4966446;28;20038;-74
2022/12/29 03:16:24;;;;;;;1.48;0.52;;;10.00;99.90;;;;;;4979364;28;20051;-75
2022/12/29 03:19:06;;;;;;;2.20;0.82;;;10.00;99.90;;;;;;5005134;28;20153;-74
2022/12/29 03:22:31;;;;;;;0.45;0.30;;;10.00;99.90;;;;;;5005155;28;20031;-75
2022/12/29 03:25:11;;;;;;;1.75;0.45;;;9.90;99.90;;;;;;5005148;28;20033;-74
2022/12/29 03:27:51;;;;;;;2.67;1.17;;;9.80;99.90;;;;;;4987363;28;20058;-75
2022/12/29 03:30:18;;;;;;;3.67;1.83;;;9.80;99.90;;;;;;4969531;28;20065;-74
2022/12/29 03:32:49;;;;;;;0.60;0.50;;;9.80;99.90;;;;;;4985612;28;20054;-74
2022/12/29 03:35:19;;;;;;;3.00;1.00;;;9.80;99.90;;;;;;4985694;28;20034;-74
2022/12/29 03:37:58;;;;;;;0.20;0.10;;;9.80;99.90;;;;;;5003618;28;20076;-74
2022/12/29 03:40:27;;;;;;;1.00;0.52;;;9.80;99.90;;;;;;5005000;28;20034;-74
2022/12/29 03:42:54;;;;;;;1.97;1.03;;;9.80;99.90;;;;;;5006281;28;20018;-74
2022/12/29 03:45:20;;;;;;;0.65;0.25;;;9.80;99.90;;;;;;5010226;28;20296;-74
2022/12/29 03:47:46;;;;;;;0.85;0.40;;;9.70;99.90;;;;;;4990942;28;20038;-74
2022/12/29 03:50:13;;;;;;;0.30;0.30;;;9.70;99.90;;;;;;4973463;28;20062;-74
2022/12/29 03:52:41;;;;;;;0.32;0.30;;;9.70;99.90;;;;;;5005525;28;20480;-74
2022/12/29 03:55:07;;;;;;;1.98;0.80;;;9.70;99.90;;;;;;4989122;28;20041;-73
2022/12/29 03:57:33;;;;;;;0.52;0.52;;;9.70;99.90;;;;;;5004609;28;20034;-73
2022/12/29 04:00:05;;;;;;;1.33;0.90;;;9.70;99.90;;;;;;5008562;28;20086;-75
2022/12/29 04:02:41;;;;;;;0.82;0.82;;;9.60;99.90;;;;;;5009828;28;20105;-74
2022/12/29 04:05:09;;;;;;;1.63;0.50;;;9.70;99.90;;;;;;4992583;28;20031;-73
2022/12/29 04:07:34;;;;;;;0.70;0.50;;;9.60;99.90;;;;;;4993959;28;20078;-74
2022/12/29 04:10:03;;;;;;;5.07;0.63;;;9.60;99.90;;;;;;4988918;28;20507;-74
2022/12/29 04:12:31;;;;;;;1.55;0.90;;;9.60;99.90;;;;;;4989025;28;20035;-74
2022/12/29 04:14:57;;;;;;;0.85;0.50;;;9.60;99.90;;;;;;4988935;28;20031;-74
2022/12/29 04:17:24;;;;;;;1.13;0.32;;;9.60;99.90;;;;;;5003749;28;20112;-74
2022/12/29 04:20:59;;;;;;;4.30;0.55;;;9.60;99.90;;;;;;5008121;28;20070;-73
2022/12/29 04:22:38;;;;;;;5.30;1.17;;;9.60;99.90;;;;;;5008161;28;20109;-74
2022/12/29 04:25:04;;;;;;;1.55;1.02;;;9.60;99.90;;;;;;5008316;28;20450;-73
2022/12/29 04:27:31;;;;;;;1.10;0.73;;;9.60;99.90;;;;;;4977385;28;20086;-73
2022/12/29 04:30:34;;;;;;;1.17;0.77;;;9.60;99.90;;;;;;4988805;28;20058;-73
2022/12/29 04:33:10;;;;;;;3.10;0.82;;;9.50;99.90;;;;;;4988550;28;20148;-74
2022/12/29 04:35:38;;;;;;;0.22;0.22;;;9.40;99.90;;;;;;4988514;28;20427;-74
2022/12/29 04:38:04;;;;;;;2.45;0.65;;;9.40;99.90;;;;;;4989786;28;20022;-74
2022/12/29 04:40:30;;;;;;;0.30;0.28;;;9.30;99.90;;;;;;4988579;28;20107;-73
2022/12/29 04:42:56;;;;;;;1.33;1.33;;;9.20;99.90;;;;;;4988246;28;20027;-74
2022/12/29 04:45:23;;;;;;;1.98;0.70;;;9.20;99.90;;;;;;4988324;28;20038;-74
2022/12/29 04:48:04;;;;;;;1.35;1.25;;;9.20;99.90;;;;;;5006955;28;20035;-74
2022/12/29 04:50:44;;;;;;;2.05;0.60;;;9.20;99.90;;;;;;5009187;28;20034;-74
2022/12/29 04:53:18;;;;;;;7.03;0.45;;;9.20;99.90;;;;;;5007836;28;20053;-75
2022/12/29 04:55:48;;;;;;;2.38;0.50;;;9.20;99.90;;;;;;5006919;28;20038;-74
2022/12/29 04:58:13;;;;;;;0.47;0.47;;;9.00;99.90;;;;;;4987916;28;20035;-74
2022/12/29 05:00:40;;;;;;;1.23;0.73;;;9.10;99.90;;;;;;4987910;28;20066;-74
2022/12/29 05:03:06;;;;;;;2.65;1.67;;;9.20;99.90;;;;;;4988033;28;20089;-74
2022/12/29 05:05:32;;;;;;;3.53;0.57;;;9.20;99.90;;;;;;4988033;28;20031;-74
2022/12/29 05:07:59;;;;;;;4.50;1.70;;;9.30;99.90;;;;;;5005041;28;20357;-74
2022/12/29 05:10:25;;;;;;;1.95;0.98;;;9.20;99.90;;;;;;5007283;28;20038;-73
2022/12/29 05:12:53;;;;;;;0.73;0.40;;;9.30;99.90;;;;;;5007317;28;20065;-73
2022/12/29 05:15:19;;;;;;;1.58;0.88;;;9.30;99.90;;;;;;5007335;28;20023;-74
2022/12/29 05:17:45;;;;;;;2.40;2.20;;;9.30;99.90;;;;;;5005610;28;20057;-74
2022/12/29 05:20:11;;;;;;;3.63;0.90;;;9.30;99.90;;;;;;5007339;28;20038;-74
2022/12/29 05:22:37;;;;;;;1.92;0.70;;;9.20;99.90;;;;;;5007247;28;20117;-73
2022/12/29 05:25:04;;;;;;;4.53;0.90;;;9.20;99.90;;;;;;4991125;28;20045;-74
2022/12/29 05:27:35;;;;;;;1.35;0.68;;;9.20;99.90;;;;;;4993341;28;20492;-74
2022/12/29 05:30:10;;;;;;;2.60;1.75;;;9.20;99.90;;;;;;4999040;28;20023;-74
2022/12/29 05:32:36;;;;;;;1.23;0.77;;;9.30;99.90;;;;;;4987446;28;20038;-74
2022/12/29 05:35:02;;;;;;;6.53;1.45;;;9.40;99.90;;;;;;4987495;28;20022;-74
2022/12/29 05:37:28;;;;;;;1.45;0.93;;;9.40;99.90;;;;;;5000123;28;20035;-74
2022/12/29 05:39:55;;;;;;;1.95;0.88;;;9.40;99.90;;;;;;4984170;28;20038;-74
2022/12/29 05:42:21;;;;;;;1.60;0.95;;;9.50;99.90;;;;;;4966222;28;20024;-74
2022/12/29 05:44:53;;;;;;;3.83;1.45;;;9.60;99.90;;;;;;4970251;28;20061;-74
2022/12/29 05:47:38;;;;;;;3.80;1.38;;;9.60;99.90;;;;;;4978558;28;20113;-73
2022/12/29 05:50:34;;;;;;;5.72;1.50;;;9.70;99.90;;;;;;4976790;28;20037;-74
2022/12/29 05:53:08;;;;;;;3.70;0.93;;;9.70;99.90;;;;;;4971594;28;20451;-74
2022/12/29 05:55:35;;;;;;;7.53;2.05;;;9.60;99.90;;;;;;4978319;28;20373;-73
2022/12/29 05:58:00;;;;;;;2.60;0.73;;;9.60;99.90;;;;;;4981379;28;20041;-73
2022/12/29 06:00:27;;;;;;;5.22;0.85;;;9.70;99.90;;;;;;4970485;28;20150;-74
2022/12/29 06:02:53;;;;;;;1.73;0.90;;;9.70;99.90;;;;;;4986654;28;20039;-74
2022/12/29 06:05:18;;;;;;;2.97;1.15;;;9.70;99.90;;;;;;4986176;28;20054;-75
2022/12/29 06:07:45;;;;;;;1.05;0.80;;;9.50;99.90;;;;;;4985809;28;20038;-73
2022/12/29 06:10:13;;;;;;;1.38;0.98;;;9.50;99.90;;;;;;4970770;28;20141;-74
2022/12/29 06:13:05;;;;;;;2.97;1.30;;;9.50;99.90;;;;;;4985123;28;20035;-74
2022/12/29 06:15:33;;;;;;;2.83;1.10;;;9.40;99.90;;;;;;4985671;28;20038;-73
2022/12/29 06:17:59;;;;;;;10.30;1.42;;;9.40;99.90;;;;;;4986469;28;20031;-73
2022/12/29 06:20:25;;;;;;;1.15;0.98;;;9.50;99.90;;;;;;4986606;28;20073;-74
2022/12/29 06:22:51;;;;;;;2.35;0.82;;;9.60;99.90;;;;;;4967542;28;20089;-73
2022/12/29 06:25:17;;;;;;;2.17;0.73;;;9.60;99.90;;;;;;4986484;28;20074;-74
2022/12/29 06:27:44;;;;;;;1.63;0.90;;;9.80;99.90;;;;;;4987169;28;20034;-73
2022/12/29 06:30:10;;;;;;;1.65;0.95;;;9.80;99.90;;;;;;4979201;28;20074;-73
2022/12/29 06:32:37;;;;;;;1.30;0.73;;;9.90;99.90;;;;;;4969779;28;20038;-73
2022/12/29 06:35:06;;;;;;;4.30;0.90;;;9.90;99.90;;;;;;4968894;28;20059;-73
2022/12/29 06:37:34;;;;;;;4.10;0.90;;;9.90;99.90;;;;;;4986076;28;20046;-74
2022/12/29 06:40:00;;;;;;;1.50;1.35;;;10.00;99.90;;;;;;4969608;28;20038;-73
2022/12/29 06:42:35;;;;;;;1.15;1.15;;;10.00;99.90;;;;;;4971189;28;20081;-73
2022/12/29 06:45:17;;;;;;;2.20;1.10;;;9.90;99.90;;;;;;4971905;28;20045;-74
2022/12/29 06:47:43;;;;;;;7.57;2.35;;;9.90;99.90;;;;;;4986956;28;20058;-74
2022/12/29 06:50:10;;;;;;;7.93;0.90;;;10.00;99.90;;;;;;4987054;28;20039;-74
2022/12/29 06:52:35;;;;;;;1.15;1.00;;;10.00;99.90;;;;;;4986031;28;20042;-74
2022/12/29 06:55:01;;;;;;;5.15;1.38;;;10.10;99.90;;;;;;4986978;28;20038;-74
2022/12/29 06:57:27;;;;;;;4.72;1.73;;;10.10;99.90;;;;;;4969490;28;20045;-74
2022/12/29 06:59:55;;;;;;;11.43;6.03;;;10.10;99.90;;;;;;4969319;28;20043;-74
2022/12/29 07:02:22;;;;;;;19.63;11.23;;;10.30;99.90;;;;;;4969254;28;20102;-74
2022/12/29 07:04:48;;;;;;;3.38;2.25;;;10.30;99.90;;;;;;4986840;28;20088;-74
2022/12/29 07:07:13;;;;;;;2.97;2.70;;;10.20;99.90;;;;;;4986885;28;20102;-75
2022/12/29 07:09:39;;;;;;;7.70;4.22;;;10.20;99.90;;;;;;4985567;28;20046;-74
2022/12/29 07:12:06;;;;;;;7.80;4.03;;;10.20;99.90;;;;;;4985321;28;20090;-74
2022/12/29 07:14:32;;;;;;;8.60;2.42;;;10.20;99.90;;;;;;4987006;28;20035;-75
2022/12/29 07:16:57;;;;;;;5.68;1.73;;;10.10;99.90;;;;;;4963328;28;20031;-74
2022/12/29 07:19:23;;;;;;;14.02;9.82;;;10.10;99.90;;;;;;4981460;28;20041;-74
2022/12/29 07:21:49;;;;;;;13.70;7.13;;;10.10;99.90;;;;;;4969213;28;20030;-74
2022/12/29 07:24:15;;;;;;;11.80;8.55;;;10.10;99.90;;;;;;4969120;28;20042;-74
2022/12/29 07:26:41;;;;;;;9.80;5.95;;;10.00;99.90;;;;;;4986737;28;20035;-74
2022/12/29 07:29:07;;;;;;;7.80;4.25;;;10.10;99.90;;;;;;4986376;28;20095;-74
2022/12/29 07:31:33;;;;;;;6.93;5.70;;;10.10;99.90;;;;;;4952895;28;20141;-74
2022/12/29 07:33:59;;;;;;;11.25;5.40;;;10.10;99.90;;;;;;4969153;28;20196;-74
2022/12/29 07:36:24;;;;;;;5.25;3.08;;;10.00;99.90;;;;;;4969040;28;20049;-74
2022/12/29 07:38:51;;;;;;;7.22;6.43;;;10.10;99.90;;;;;;4969030;28;20082;-74
2022/12/29 07:41:17;;;;;;;3.20;1.02;;;10.20;99.90;;;;;;4985361;28;20118;-74
2022/12/29 07:43:48;;;;;;;3.05;2.28;;;10.10;99.90;;;;;;4986175;28;20031;-74
2022/12/29 07:46:31;;;;;;;8.05;3.17;;;10.20;99.90;;;;;;4983141;28;20027;-74
2022/12/29 07:48:56;;;;;;;4.07;3.22;;;10.20;99.90;;;;;;4984985;28;20035;-74
2022/12/29 07:51:22;;;;;;;6.15;5.60;;;10.20;99.90;;;;;;4969193;28;20035;-74
2022/12/29 07:53:48;;;;;;;5.55;2.55;;;10.20;99.90;;;;;;4984882;28;20035;-74
2022/12/29 07:56:14;;;;;;;5.82;3.20;;;10.10;99.90;;;;;;4984871;28;20042;-74
2022/12/29 07:58:41;;;;;;;7.10;2.80;;;10.00;99.90;;;;;;4976841;28;20038;-74
2022/12/29 08:01:07;;;;;;;6.30;2.75;;;10.10;99.90;;;;;;4985033;28;20039;-74
2022/12/29 08:03:33;;;;;;;8.40;2.30;;;10.00;99.90;;;;;;4984976;28;20062;-74
2022/12/29 08:05:58;;;;;;;6.22;1.35;;;10.00;99.90;;;;;;4986145;28;20038;-74
2022/12/29 08:08:24;;;;;;;5.50;1.85;;;10.00;99.90;;;;;;4984722;28;20023;-74
2022/12/29 08:10:50;;;;;;;2.25;1.02;;;9.90;99.90;;;;;;4985249;28;20031;-74
2022/12/29 08:13:16;;;;;;;5.90;2.33;;;9.90;99.90;;;;;;4967882;28;20514;-74
2022/12/29 08:15:42;;;;;;;7.55;2.65;;;9.90;99.90;;;;;;4968013;28;20027;-74
2022/12/29 08:18:07;;;;;;;3.17;1.48;;;10.10;99.90;;;;;;4987057;28;20386;-74
2022/12/29 08:20:33;;;;;;;2.38;1.27;;;10.20;99.90;;;;;;4983978;28;20039;-74
2022/12/29 08:22:59;;;;;;;3.05;1.48;;;10.40;99.90;;;;;;4985285;28;20026;-74
2022/12/29 08:25:25;;;;;;;2.75;1.55;;;10.50;99.90;;;;;;4984272;28;20480;-74
2022/12/29 08:27:51;;;;;;;14.38;8.38;;;10.50;99.90;;;;;;4985466;28;20022;-73
2022/12/29 08:30:17;;;;;;;5.07;2.28;;;10.50;99.90;;;;;;4974435;28;20038;-74
2022/12/29 08:32:43;;;;;;;8.05;2.53;;;10.50;99.90;;;;;;4991182;28;20039;-74
2022/12/29 08:35:09;;;;;;;2.88;1.65;;;10.50;99.90;;;;;;4985698;28;20041;-74
2022/12/29 08:37:35;;;;;;;5.20;2.08;;;10.60;99.90;;;;;;4987448;28;20023;-74
2022/12/29 08:40:03;;;;;;;5.90;2.42;;;10.50;99.90;;;;;;4989831;28;20027;-74
2022/12/29 08:42:30;;;;;;;1.90;1.80;;;10.50;99.90;;;;;;4987897;28;20031;-74
2022/12/29 08:45:00;;;;;;;5.65;1.80;;;10.50;99.90;;;;;;4970501;28;20066;-74
2022/12/29 08:47:26;;;;;;;3.22;2.17;;;10.50;99.90;;;;;;4994800;28;20084;-74
2022/12/29 08:49:53;;;;;;;5.90;1.30;;;10.50;99.90;;;;;;4986493;28;20026;-74
2022/12/29 08:52:19;;;;;;;7.82;2.22;;;10.50;99.90;;;;;;4988012;28;20035;-74
2022/12/29 08:54:44;;;;;;;2.00;1.90;;;10.60;99.90;;;;;;4988414;28;20046;-74
2022/12/29 08:57:11;;;;;;;7.60;1.67;;;10.60;99.90;;;;;;4987531;28;20037;-74
2022/12/29 08:59:45;;;;;;;3.88;2.05;;;10.70;99.90;;;;;;4986428;28;20127;-74
2022/12/29 09:02:12;;;;;;;4.10;1.38;;;10.90;99.90;;;;;;4970584;28;20019;-74
2022/12/29 09:04:38;;;;;;;19.42;14.88;;;11.50;99.90;;;;;;4988997;28;20087;-73
2022/12/29 09:07:05;;;;;;;8.00;2.70;;;11.60;99.90;;;;;;4985803;28;20015;-74
2022/12/29 09:09:31;;;;;;;9.63;5.00;;;11.40;99.90;;;;;;4986972;28;20058;-75
2022/12/29 09:11:57;;;;;;;5.18;1.30;;;11.20;99.90;;;;;;4987767;28;20043;-74
2022/12/29 09:14:23;;;;;;;8.20;3.75;;;11.10;99.90;;;;;;4987942;28;20122;-75
2022/12/29 09:19:36;;;;;;;3.25;1.83;;;11.10;99.90;;;;;;4980487;28;20046;-76
2022/12/29 09:22:05;;;;;;;3.20;1.55;;;10.90;99.90;;;;;;5001014;28;20035;-75
2022/12/29 09:24:31;;;;;;;;;;;10.90;99.90;;;;;;5005497;28;20065;-75
2022/12/29 09:26:57;;;;;;;1.95;1.73;;;11.10;99.90;;;;;;4977402;28;19917;-75
2022/12/29 09:29:24;;;;;;;4.63;1.48;;;12.30;99.90;;;;;;4988683;28;20057;-76
2022/12/29 09:31:50;;;;;;;2.97;1.95;;;12.40;99.90;;;;;;4991541;28;20428;-76
2022/12/29 09:34:16;;;;;;;2.05;1.15;;;12.40;99.90;;;;;;4991035;28;20038;-75
2022/12/29 09:36:41;;;;;;;4.78;1.23;;;12.20;99.90;;;;;;5002605;28;20054;-75
2022/12/29 09:39:08;;;;;;;5.47;1.48;;;11.90;99.90;;;;;;4989249;28;20035;-75
2022/12/29 09:41:46;;;;;;;4.20;1.35;;;11.80;99.90;;;;;;4987371;28;20027;-75
2022/12/29 09:44:41;;;;;;;5.80;1.88;;;12.00;99.90;;;;;;4989603;28;20045;-76
2022/12/29 09:47:14;;;;;;;7.38;2.70;;;13.40;99.90;;;;;;5000922;28;20027;-76
2022/12/29 09:49:45;;;;;;;2.20;1.60;;;13.40;99.90;;;;;;4998856;28;20030;-75
2022/12/29 09:52:44;;;;;;;3.55;1.75;;;13.30;99.90;;;;;;4988496;28;20102;-75
2022/12/29 09:55:12;;;;;;;3.83;1.35;;;14.30;99.90;;;;;;4988282;28;20102;-76
2022/12/29 09:57:46;;;;;;;3.38;2.42;;;14.60;99.90;;;;;;5007389;28;20058;-75
2022/12/29 10:00:21;;;;;;;5.47;2.38;;;14.80;99.90;;;;;;5005325;28;20053;-75
2022/12/29 10:02:56;;;;;;;4.57;2.40;;;15.10;99.90;;;;;;4996142;28;20030;-75
2022/12/29 10:05:29;;;;;;;6.65;1.20;;;15.50;99.90;;;;;;5005843;28;20022;-75
2022/12/29 10:08:14;;;;;;;5.60;1.50;;;15.00;99.90;;;;;;4995484;28;20027;-75
2022/12/29 10:11:05;;;;;;;5.28;2.72;;;14.20;99.90;;;;;;4987009;28;20093;-75
2022/12/29 10:14:18;;;;;;;4.65;1.83;;;13.60;99.90;;;;;;4977634;28;20029;-75
2022/12/29 10:17:18;;;;;;;7.65;2.03;;;12.90;99.90;;;;;;4973396;28;20062;-75
2022/12/29 10:19:57;;;;;;;9.80;2.28;;;12.70;99.90;;;;;;4986625;28;20041;-75
2022/12/29 10:22:50;;;;;;;10.68;2.58;;;12.60;99.90;;;;;;4987830;28;20023;-75
2022/12/29 10:25:19;;;;;;;3.78;1.42;;;12.70;99.90;;;;;;4980005;28;20041;-75
2022/12/29 10:27:48;;;;;;;4.60;2.17;;;12.70;99.90;;;;;;4987579;28;20082;-75
2022/12/29 10:30:15;;;;;;;2.20;1.48;;;12.60;99.90;;;;;;4987728;28;20039;-75
2022/12/29 10:32:58;;;;;;;2.58;1.17;;;12.60;99.90;;;;;;5004818;28;20057;-76
2022/12/29 10:35:30;;;;;;;2.45;1.48;;;12.30;99.90;;;;;;4996528;28;20031;-75
2022/12/29 10:38:18;;;;;;;3.08;1.17;;;11.90;99.90;;;;;;4986614;28;20038;-75
2022/12/29 10:41:00;;;;;;;5.78;2.22;;;11.80;99.90;;;;;;4981404;28;20042;-76
2022/12/29 10:43:35;;;;;;;5.38;2.15;;;11.90;99.90;;;;;;4985449;28;20093;-75
2022/12/29 10:46:17;;;;;;;1.83;1.42;;;12.40;99.90;;;;;;4996252;28;20037;-76
2022/12/29 10:48:46;;;;;;;3.20;2.10;;;12.40;99.90;;;;;;4983725;28;20023;-75
2022/12/29 10:51:42;;;;;;;11.20;2.70;;;12.20;99.90;;;;;;4984572;28;20027;-75
2022/12/29 10:54:27;;;;;;;5.43;1.95;;;12.50;99.90;;;;;;4984729;28;20050;-75
2022/12/29 10:57:00;;;;;;;5.78;2.08;;;12.20;99.90;;;;;;4980620;28;20027;-76
2022/12/29 10:59:30;;;;;;;5.43;2.00;;;12.00;99.90;;;;;;5004589;28;20074;-75
2022/12/29 11:01:56;;;;;;;;;;;12.10;99.90;;;;;;4989209;28;20023;-75
2022/12/29 11:05:12;;;;;;;13.90;3.95;;;12.20;99.90;;;;;;4998152;28;19925;-75
2022/12/29 11:07:39;;;;;;;4.47;2.22;;;12.00;99.90;;;;;;4930960;29;20059;-75
2022/12/29 11:10:32;;;;;;;6.28;3.13;;;11.90;99.90;;;;;;4939953;29;20036;-75
2022/12/29 11:13:02;;;;;;;4.50;2.20;;;12.10;99.90;;;;;;4967370;28;20126;-75
2022/12/29 11:15:41;;;;;;;6.93;2.65;;;12.20;99.90;;;;;;4993802;28;20030;-76
2022/12/29 11:18:25;;;;;;;8.07;2.45;;;12.10;99.90;;;;;;4984965;28;20114;-75
2022/12/29 11:21:00;;;;;;;3.80;2.00;;;11.90;99.90;;;;;;4969796;28;20038;-75
2022/12/29 11:23:36;;;;;;;3.67;1.60;;;11.80;99.90;;;;;;4984424;28;20022;-75
2022/12/29 11:26:11;;;;;;;5.50;2.08;;;11.70;99.90;;;;;;4967482;28;20032;-75
2022/12/29 11:28:38;;;;;;;9.00;2.70;;;11.60;99.90;;;;;;4985717;28;20057;-76
2022/12/29 11:31:06;;;;;;;8.13;3.33;;;11.60;99.90;;;;;;4986688;28;20097;-76
2022/12/29 11:33:33;;;;;;;7.75;2.33;;;11.60;99.90;;;;;;4981505;28;20051;-76
2022/12/29 11:36:14;;;;;;;5.95;3.28;;;11.50;99.90;;;;;;4973209;28;20030;-76
2022/12/29 11:39:01;;;;;;;4.20;2.38;;;11.50;99.90;;;;;;4987304;28;20031;-75
2022/12/29 11:41:30;;;;;;;11.57;2.97;;;11.40;99.90;;;;;;4978361;28;20046;-76
2022/12/29 11:43:59;;;;;;;10.25;3.03;;;11.40;99.90;;;;;;4993755;28;20024;-75
2022/12/29 11:46:29;;;;;;;2.92;2.00;;;11.40;99.90;;;;;;4996494;28;20064;-76
2022/12/29 11:48:59;;;;;;;4.28;2.30;;;11.40;99.90;;;;;;4988710;28;20073;-76
2022/12/29 11:51:41;;;;;;;9.75;1.85;;;11.40;99.90;;;;;;4974891;28;20034;-75
2022/12/29 11:54:24;;;;;;;5.68;1.80;;;11.30;99.90;;;;;;4984932;28;20118;-76
2022/12/29 11:56:51;;;;;;;3.05;1.88;;;11.30;99.90;;;;;;4987992;28;20081;-75
2022/12/29 11:59:38;;;;;;;9.07;2.25;;;11.30;99.90;;;;;;4988439;28;20054;-76
2022/12/29 12:02:20;;;;;;;4.45;2.13;;;11.40;99.90;;;;;;4978177;28;20061;-76
2022/12/29 12:04:50;;;;;;;18.88;2.47;;;11.50;99.90;;;;;;4970695;28;20066;-76
2022/12/29 12:07:49;;;;;;;5.93;3.92;;;11.40;99.90;;;;;;4983643;28;20050;-75
2022/12/29 12:10:22;;;;;;;3.72;2.35;;;11.50;99.90;;;;;;4982890;28;20119;-76
2022/12/29 12:13:06;;;;;;;9.15;2.83;;;11.50;99.90;;;;;;4966766;28;20106;-76
2022/12/29 12:15:42;;;;;;;4.88;3.13;;;11.40;99.90;;;;;;4985552;28;20073;-76
2022/12/29 12:18:37;;;;;;;2.90;1.20;;;11.20;99.90;;;;;;4984287;28;20037;-76
2022/12/29 12:21:09;;;;;;;8.18;2.22;;;11.00;99.90;;;;;;4988992;28;20027;-76
2022/12/29 12:23:44;;;;;;;5.85;1.50;;;11.00;99.90;;;;;;4989189;28;20034;-76
2022/12/29 12:26:17;;;;;;;4.47;2.08;;;10.90;99.90;;;;;;4987888;28;20050;-76
2022/12/29 12:28:58;;;;;;;3.30;1.45;;;10.80;99.90;;;;;;4988803;28;20023;-76
2022/12/29 12:31:53;;;;;;;5.35;1.92;;;10.80;99.90;;;;;;4989595;28;20035;-74
2022/12/29 12:34:39;;;;;;;5.55;2.67;;;10.70;99.90;;;;;;5004618;28;20420;-73
2022/12/29 12:37:27;;;;;;;8.18;4.43;;;10.70;99.90;;;;;;4992188;28;20027;-74
2022/12/29 12:40:02;;;;;;;6.45;4.78;;;10.70;99.90;;;;;;4988479;28;20035;-73
2022/12/29 12:42:31;;;;;;;7.63;3.30;;;10.80;99.90;;;;;;4989676;28;20019;-74
2022/12/29 12:45:04;;;;;;;9.70;3.13;;;10.90;99.90;;;;;;4987842;28;20050;-74
2022/12/29 12:47:55;;;;;;;16.02;8.75;;;10.90;99.90;;;;;;4989129;28;20101;-74
2022/12/29 12:50:47;;;;;;;13.05;7.97;;;10.80;99.90;;;;;;4988277;28;20039;-74
2022/12/29 12:53:34;;;;;;;8.48;4.10;;;10.80;99.90;;;;;;4987324;28;20076;-74
2022/12/29 12:56:18;;;;;;;10.10;6.25;;;10.60;99.90;;;;;;4987754;28;20035;-74
2022/12/29 12:58:56;;;;;;;23.58;16.60;;;10.50;99.90;;;;;;4973814;28;20054;-74
2022/12/29 13:01:35;;;;;;;6.50;4.28;;;10.40;99.90;;;;;;4984167;28;20483;-76
2022/12/29 13:04:04;;;;;;;3.70;2.78;;;10.30;99.90;;;;;;4988740;28;20023;-76
2022/12/29 13:06:53;;;;;;;7.15;3.15;;;10.20;99.90;;;;;;4988297;28;20015;-76
2022/12/29 13:09:33;;;;;;;26.63;13.30;;;10.30;99.90;;;;;;4987102;28;20073;-76
2022/12/29 13:12:17;;;;;;;5.05;2.80;;;10.40;99.90;;;;;;4986691;28;20468;-77
2022/12/29 13:15:19;;;;;;;3.03;2.83;;;10.50;99.90;;;;;;4986270;28;20029;-76
2022/12/29 13:17:55;;;;;;;4.30;2.97;;;10.60;99.90;;;;;;4986690;28;20034;-76
2022/12/29 13:20:39;;;;;;;6.57;4.00;;;10.80;99.90;;;;;;4987587;28;20026;-76
2022/12/29 13:23:17;;;;;;;4.82;3.10;;;11.00;99.90;;;;;;4985884;28;20027;-76
2022/12/29 13:26:00;;;;;;;5.65;1.80;;;11.10;99.90;;;;;;4987872;28;20055;-76
2022/12/29 13:28:38;;;;;;;10.23;3.63;;;11.20;99.90;;;;;;4987793;28;20034;-76
2022/12/29 13:31:14;;;;;;;7.15;2.88;;;11.10;99.90;;;;;;4986329;28;20026;-76
2022/12/29 13:33:46;;;;;;;15.57;5.90;;;10.90;99.90;;;;;;4987715;28;20121;-76
2022/12/29 13:36:55;;;;;;;3.10;1.95;;;11.00;99.90;;;;;;4988746;28;20086;-76
2022/12/29 13:39:27;;;;;;;6.10;2.00;;;11.00;99.90;;;;;;4946300;29;20032;-76
2022/12/29 13:41:55;;;;;;;2.03;1.20;;;11.00;99.90;;;;;;4947907;29;20028;-76
2022/12/29 13:44:41;;;;;;;5.20;1.98;;;11.10;99.90;;;;;;4935097;29;20035;-75
2022/12/29 13:47:25;;;;;;;2.00;1.13;;;11.00;99.90;;;;;;4984275;28;20045;-75
2022/12/29 13:49:52;;;;;;;11.40;2.90;;;10.90;99.90;;;;;;4987654;28;20037;-75
2022/12/29 13:52:34;;;;;;;7.78;1.58;;;10.90;99.90;;;;;;4987582;28;20023;-76